createdAt,value
2024-03-16T00:01:41.409Z,76325.34
2024-03-16T00:04:09.765Z,76325.34
2024-03-16T00:06:38.536Z,76319.22
2024-03-16T00:09:09.438Z,76315.13
2024-03-16T00:11:37.938Z,76313.09
2024-03-16T00:14:06.746Z,76313.09
2024-03-16T00:16:35.505Z,76311.06
2024-03-16T00:19:04.995Z,76302.91
2024-03-16T00:21:33.461Z,76306.97
2024-03-16T00:24:01.701Z,76300.84
2024-03-16T00:26:30.761Z,76298.81
2024-03-16T00:28:59.658Z,76294.75
2024-03-16T00:31:28.678Z,76296.78
2024-03-16T00:33:58.552Z,76294.75
2024-03-16T00:36:26.748Z,76296.78
2024-03-16T00:38:55.764Z,76292.69
2024-03-16T00:41:28.263Z,76298.81
2024-03-16T00:43:56.830Z,76298.81
2024-03-16T00:46:25.051Z,76292.69
2024-03-16T00:48:53.434Z,76288.63
2024-03-16T00:51:22.898Z,76290.66
2024-03-16T00:53:51.426Z,76290.66
2024-03-16T00:56:19.777Z,76292.69
2024-03-16T00:58:49.425Z,76296.78
2024-03-16T01:01:18.364Z,76294.75
2024-03-16T01:03:46.702Z,76292.69
2024-03-16T01:06:14.927Z,76294.75
2024-03-16T01:08:43.145Z,76296.78
2024-03-16T01:11:11.522Z,76296.78
2024-03-16T01:13:39.993Z,76298.81
2024-03-16T01:16:08.387Z,76296.78
2024-03-16T01:18:36.696Z,76290.66
2024-03-16T01:21:07.366Z,76288.63
2024-03-16T01:23:38.445Z,76286.56
2024-03-16T01:26:09.877Z,76284.53
2024-03-16T01:28:38.115Z,76280.47
2024-03-16T01:31:06.332Z,76280.47
2024-03-16T01:33:34.630Z,76270.25
2024-03-16T01:36:04.712Z,76272.28
2024-03-16T01:38:33.113Z,76266.19
2024-03-16T01:41:01.641Z,76262.09
2024-03-16T01:43:29.999Z,76255.97
2024-03-16T01:45:58.220Z,76249.84
2024-03-16T01:48:26.835Z,76253.94
2024-03-16T01:50:56.269Z,76251.91
2024-03-16T01:53:24.649Z,76249.84
2024-03-16T01:55:57.184Z,76245.78
2024-03-16T01:58:25.352Z,76249.84
2024-03-16T02:01:03.488Z,76255.97
2024-03-16T02:03:31.780Z,76253.94
2024-03-16T02:06:01.172Z,76260.06
2024-03-16T02:08:29.541Z,76255.97
2024-03-16T02:10:58.605Z,76255.97
2024-03-16T02:13:30.043Z,76253.94
2024-03-16T02:15:58.277Z,76258.00
2024-03-16T02:18:26.803Z,76251.91
2024-03-16T02:20:55.091Z,76253.94
2024-03-16T02:23:23.435Z,76253.94
2024-03-16T02:25:53.563Z,76251.91
2024-03-16T02:28:25.328Z,76262.09
2024-03-16T02:30:53.663Z,76258.00
2024-03-16T02:33:21.968Z,76262.09
2024-03-16T02:35:50.136Z,76266.19
2024-03-16T02:38:21.204Z,76268.22
2024-03-16T02:40:49.597Z,76272.28
2024-03-16T02:43:20.526Z,76270.25
2024-03-16T02:45:48.820Z,76274.34
2024-03-16T02:48:17.406Z,76276.38
2024-03-16T02:50:51.389Z,76268.22
2024-03-16T02:53:19.805Z,76268.22
2024-03-16T02:55:50.147Z,76266.19
2024-03-16T02:58:18.470Z,76262.09
2024-03-16T03:00:47.243Z,76264.13
2024-03-16T03:03:15.535Z,76255.97
2024-03-16T03:05:47.340Z,76247.81
2024-03-16T03:08:15.652Z,76247.81
2024-03-16T03:10:44.091Z,76247.81
2024-03-16T03:13:12.313Z,76241.69
2024-03-16T03:15:40.784Z,76241.69
2024-03-16T03:18:09.115Z,76231.50
2024-03-16T03:20:37.466Z,76233.53
2024-03-16T03:23:06.828Z,76225.38
2024-03-16T03:25:36.601Z,76223.34
2024-03-16T03:28:05.813Z,76225.38
2024-03-16T03:30:37.427Z,76219.25
2024-03-16T03:33:05.955Z,76217.22
2024-03-16T03:35:36.010Z,76217.22
2024-03-16T03:38:08.604Z,76213.13
2024-03-16T03:40:36.973Z,76209.06
2024-03-16T03:43:06.977Z,76204.97
2024-03-16T03:45:51.439Z,76202.94
2024-03-16T03:48:42.380Z,76204.97
2024-03-16T03:51:10.910Z,76200.88
2024-03-16T03:53:39.175Z,76207.00
2024-03-16T03:56:07.644Z,76207.00
2024-03-16T03:58:35.884Z,76202.94
2024-03-16T04:01:04.185Z,76202.94
2024-03-16T04:03:32.732Z,76192.72
2024-03-16T04:06:02.790Z,76190.69
2024-03-16T04:08:31.082Z,76190.69
2024-03-16T04:10:59.348Z,76192.72
2024-03-16T04:13:27.488Z,76186.59
2024-03-16T04:15:56.783Z,76184.56
2024-03-16T04:18:25.277Z,76188.66
2024-03-16T04:20:53.984Z,76190.69
2024-03-16T04:23:22.247Z,76186.59
2024-03-16T04:25:51.732Z,76182.53
2024-03-16T04:28:20.810Z,76188.66
2024-03-16T04:30:48.999Z,76186.59
2024-03-16T04:33:17.565Z,76184.56
2024-03-16T04:35:49.504Z,76184.56
2024-03-16T04:38:18.813Z,76190.69
2024-03-16T04:40:47.061Z,76184.56
2024-03-16T04:43:15.517Z,76184.56
2024-03-16T04:45:45.889Z,76184.56
2024-03-16T04:48:14.748Z,76184.56
2024-03-16T04:50:43.314Z,76188.66
2024-03-16T04:53:12.831Z,76184.56
2024-03-16T04:55:41.536Z,76182.53
2024-03-16T04:58:09.862Z,76178.44
2024-03-16T05:00:40.380Z,76186.59
2024-03-16T05:03:11.042Z,76180.50
2024-03-16T05:05:41.990Z,76176.41
2024-03-16T05:08:10.291Z,76182.53
2024-03-16T05:10:41.127Z,76180.50
2024-03-16T05:13:09.422Z,76180.50
2024-03-16T05:15:37.731Z,76188.66
2024-03-16T05:18:06.441Z,76182.53
2024-03-16T05:20:36.388Z,76182.53
2024-03-16T05:23:05.854Z,76182.53
2024-03-16T05:25:34.035Z,76186.59
2024-03-16T05:28:02.209Z,76186.59
2024-03-16T05:30:31.030Z,76184.56
2024-03-16T05:32:59.290Z,76184.56
2024-03-16T05:35:30.033Z,76180.50
2024-03-16T05:37:58.247Z,76174.38
2024-03-16T05:40:26.660Z,76174.38
2024-03-16T05:42:54.897Z,76166.22
2024-03-16T05:45:23.043Z,76170.28
2024-03-16T05:47:54.291Z,76168.25
2024-03-16T05:50:22.455Z,76158.03
2024-03-16T05:52:50.984Z,76158.03
2024-03-16T05:55:19.162Z,76149.88
2024-03-16T05:57:50.416Z,76137.66
2024-03-16T06:00:21.331Z,76131.53
2024-03-16T06:02:51.488Z,76125.41
2024-03-16T06:05:19.711Z,76129.47
2024-03-16T06:07:47.972Z,76125.41
2024-03-16T06:10:16.350Z,76133.56
2024-03-16T06:12:45.075Z,76135.59
2024-03-16T06:15:13.354Z,76131.53
2024-03-16T06:17:47.989Z,76131.53
2024-03-16T06:20:16.675Z,76127.44
2024-03-16T06:22:48.900Z,76135.59
2024-03-16T06:25:18.452Z,76123.38
2024-03-16T06:27:51.190Z,76129.47
2024-03-16T06:30:20.729Z,76119.28
2024-03-16T06:33:07.118Z,76115.19
2024-03-16T06:35:35.893Z,76113.16
2024-03-16T06:38:04.670Z,76113.16
2024-03-16T06:40:37.918Z,76107.03
2024-03-16T06:43:06.551Z,76098.88
2024-03-16T06:45:34.990Z,76098.88
2024-03-16T06:48:06.580Z,76096.84
2024-03-16T06:50:36.762Z,76094.81
2024-03-16T06:53:07.640Z,76084.59
2024-03-16T06:55:36.163Z,76072.38
2024-03-16T06:58:06.110Z,76064.19
2024-03-16T07:00:34.465Z,76045.84
2024-03-16T07:03:04.900Z,76031.56
2024-03-16T07:05:33.118Z,76021.34
2024-03-16T07:08:08.479Z,76009.13
2024-03-16T07:10:36.638Z,76005.03
2024-03-16T07:13:07.545Z,76005.03
2024-03-16T07:15:35.892Z,75996.88
2024-03-16T07:18:04.854Z,75980.56
2024-03-16T07:20:33.056Z,75974.44
2024-03-16T07:23:01.297Z,75954.03
2024-03-16T07:25:29.613Z,75935.69
2024-03-16T07:28:00.997Z,75933.63
2024-03-16T07:30:29.416Z,75923.44
2024-03-16T07:32:58.206Z,75923.44
2024-03-16T07:35:26.627Z,75921.41
2024-03-16T07:37:57.348Z,75911.19
2024-03-16T07:40:25.641Z,75917.31
2024-03-16T07:42:53.972Z,75917.31
2024-03-16T07:45:22.937Z,75915.28
2024-03-16T07:47:54.456Z,75913.25
2024-03-16T07:50:22.681Z,75901.00
2024-03-16T07:52:54.285Z,75886.72
2024-03-16T07:55:22.550Z,75884.69
2024-03-16T07:57:51.118Z,75864.28
2024-03-16T08:00:19.545Z,75874.47
2024-03-16T08:02:47.707Z,75872.44
2024-03-16T08:05:18.611Z,75872.44
2024-03-16T08:07:48.921Z,75886.72
2024-03-16T08:10:17.483Z,75890.78
2024-03-16T08:12:45.897Z,75919.34
2024-03-16T08:15:14.441Z,75925.47
2024-03-16T08:17:42.693Z,75929.56
2024-03-16T08:20:16.252Z,75935.69
2024-03-16T08:22:45.894Z,75949.97
2024-03-16T08:25:14.246Z,75949.97
2024-03-16T08:27:42.716Z,75947.91
2024-03-16T08:30:11.418Z,75949.97
2024-03-16T08:32:39.630Z,75945.88
2024-03-16T08:35:08.578Z,75941.78
2024-03-16T08:37:36.828Z,75937.72
2024-03-16T08:40:14.525Z,75937.72
2024-03-16T08:42:42.910Z,75939.75
2024-03-16T08:45:12.128Z,75941.78
2024-03-16T08:47:42.866Z,75937.72
2024-03-16T08:50:14.233Z,75921.41
2024-03-16T08:52:44.272Z,75898.97
2024-03-16T08:55:14.800Z,75864.28
2024-03-16T08:57:43.454Z,75847.97
2024-03-16T09:00:15.078Z,75839.81
2024-03-16T09:04:20.550Z,75839.81
2024-03-16T09:06:48.578Z,75835.72
2024-03-16T09:09:17.676Z,75852.03
2024-03-16T09:11:46.843Z,75858.16
2024-03-16T09:14:15.057Z,75864.28
2024-03-16T09:16:42.901Z,75870.41
2024-03-16T09:19:11.180Z,75852.03
2024-03-16T09:21:39.118Z,75833.69
2024-03-16T09:24:07.410Z,75805.13
2024-03-16T09:26:35.703Z,75794.91
2024-03-16T09:29:07.170Z,75778.59
2024-03-16T09:31:35.109Z,75768.41
2024-03-16T09:34:04.939Z,75762.28
2024-03-16T09:36:33.019Z,75770.44
2024-03-16T09:39:01.245Z,75778.59
2024-03-16T09:41:30.431Z,75774.53
